createdAt,value
2022-08-03T00:01:31.451Z,20.65
2022-08-03T00:04:34.327Z,20.49
2022-08-03T00:07:36.129Z,20.36
2022-08-03T00:10:38.530Z,20.12
2022-08-03T00:13:40.568Z,20.10
2022-08-03T00:16:42.209Z,20.21
2022-08-03T00:19:44.085Z,20.16
2022-08-03T00:22:45.785Z,19.99
2022-08-03T00:25:47.457Z,19.78
2022-08-03T00:28:50.612Z,19.74
2022-08-03T00:31:59.451Z,19.71
2022-08-03T00:35:06.355Z,19.69
2022-08-03T00:38:10.621Z,19.48
2022-08-03T00:41:12.435Z,19.56
2022-08-03T00:44:17.749Z,19.65
2022-08-03T00:47:19.396Z,19.67
2022-08-03T00:50:23.536Z,19.90
2022-08-03T00:53:26.931Z,19.72
2022-08-03T00:56:28.605Z,19.53
2022-08-03T00:59:31.399Z,19.74
2022-08-03T01:02:33.505Z,19.72
2022-08-03T01:05:44.906Z,19.43
2022-08-03T01:08:49.425Z,19.43
2022-08-03T01:12:04.256Z,19.40
2022-08-03T01:15:16.032Z,19.66
2022-08-03T01:18:22.882Z,19.92
2022-08-03T01:21:31.833Z,19.98
2022-08-03T01:25:31.065Z,20.02
2022-08-03T01:28:51.774Z,20.29
2022-08-03T01:33:00.026Z,20.42
2022-08-03T01:35:28.745Z,20.73
2022-08-03T01:38:38.935Z,20.72
2022-08-03T01:41:48.910Z,20.70
2022-08-03T01:44:53.589Z,20.75
2022-08-03T01:47:57.198Z,20.68
2022-08-03T01:51:01.259Z,20.70
2022-08-03T01:54:05.190Z,20.61
2022-08-03T01:57:10.273Z,20.52
2022-08-03T02:00:14.639Z,20.60
2022-08-03T02:03:18.029Z,20.70
2022-08-03T02:07:02.722Z,20.66
2022-08-03T02:09:50.369Z,20.70
2022-08-03T02:12:54.075Z,20.58
2022-08-03T02:15:58.331Z,20.48
2022-08-03T02:19:05.462Z,19.58
2022-08-03T02:22:12.499Z,19.24
2022-08-03T02:25:16.160Z,19.09
2022-08-03T02:28:21.605Z,19.09
2022-08-03T02:31:28.872Z,18.84
2022-08-03T02:34:34.395Z,18.60
2022-08-03T02:37:49.810Z,18.32
2022-08-03T02:40:55.772Z,18.24
2022-08-03T02:44:06.306Z,18.41
2022-08-03T02:47:12.643Z,18.19
2022-08-03T02:50:17.116Z,18.37
2022-08-03T02:53:20.356Z,18.43
2022-08-03T02:56:25.903Z,17.97
2022-08-03T02:59:31.401Z,18.54
2022-08-03T03:02:35.409Z,18.27
2022-08-03T03:05:54.682Z,18.70
2022-08-03T03:08:59.919Z,18.86
2022-08-03T03:12:02.944Z,18.95
2022-08-03T03:15:08.244Z,18.51
2022-08-03T03:18:11.470Z,18.54
2022-08-03T03:21:16.637Z,18.51
2022-08-03T03:24:21.114Z,18.35
2022-08-03T03:27:23.519Z,18.55
2022-08-03T03:30:26.357Z,18.53
2022-08-03T03:33:28.780Z,18.40
2022-08-03T03:36:30.663Z,18.04
2022-08-03T03:39:32.625Z,17.76
2022-08-03T03:42:34.956Z,17.77
2022-08-03T03:45:37.491Z,17.34
2022-08-03T03:48:39.644Z,17.52
2022-08-03T03:51:42.964Z,17.29
2022-08-03T03:54:45.742Z,17.33
2022-08-03T03:57:47.624Z,17.32
2022-08-03T04:00:49.975Z,17.32
2022-08-03T04:03:51.848Z,17.23
2022-08-03T04:07:12.188Z,17.23
2022-08-03T04:10:46.853Z,17.22
2022-08-03T04:14:01.877Z,17.30
2022-08-03T04:17:07.416Z,17.55
2022-08-03T04:20:10.893Z,17.75
2022-08-03T04:23:15.685Z,17.71
2022-08-03T04:26:21.672Z,17.90
2022-08-03T04:29:26.084Z,17.88
2022-08-03T04:32:29.146Z,18.08
2022-08-03T04:36:02.025Z,18.17
2022-08-03T04:39:08.584Z,18.29
2022-08-03T04:42:12.750Z,18.24
2022-08-03T04:45:16.774Z,18.45
2022-08-03T04:48:20.200Z,18.58
2022-08-03T04:51:22.354Z,18.77
2022-08-03T04:54:24.286Z,18.79
2022-08-03T04:57:26.130Z,18.65
2022-08-03T05:00:28.508Z,18.68
2022-08-03T05:03:31.904Z,18.79
2022-08-03T05:06:34.150Z,18.83
2022-08-03T05:09:50.688Z,18.83
2022-08-03T05:12:54.270Z,18.94
2022-08-03T05:15:56.328Z,19.13
2022-08-03T05:18:57.900Z,19.08
2022-08-03T05:21:59.878Z,19.21
2022-08-03T05:25:02.567Z,19.32
2022-08-03T05:28:04.743Z,19.52
2022-08-03T05:31:06.649Z,19.76
2022-08-03T05:34:08.292Z,19.96
2022-08-03T05:37:10.523Z,20.33
2022-08-03T05:40:12.817Z,20.56
2022-08-03T05:43:14.460Z,20.91
2022-08-03T05:46:16.517Z,20.82
2022-08-03T05:49:19.257Z,20.80
2022-08-03T05:52:21.558Z,20.78
2022-08-03T05:55:23.901Z,20.91
2022-08-03T05:58:25.784Z,20.87
2022-08-03T06:01:33.201Z,21.10
2022-08-03T06:04:35.082Z,21.22
2022-08-03T06:07:37.398Z,21.83
2022-08-03T06:10:39.135Z,22.26
2022-08-03T06:13:41.207Z,22.76
2022-08-03T06:16:42.961Z,23.33
2022-08-03T06:19:44.884Z,23.53
2022-08-03T06:22:51.137Z,23.34
2022-08-03T06:26:02.235Z,23.39
2022-08-03T06:29:04.253Z,23.51
2022-08-03T06:32:06.277Z,23.92
2022-08-03T06:35:09.761Z,23.87
2022-08-03T06:38:13.020Z,24.02
2022-08-03T06:41:14.956Z,23.93
2022-08-03T06:44:16.670Z,23.80
2022-08-03T06:47:18.728Z,24.15
2022-08-03T06:50:26.002Z,24.26
2022-08-03T06:53:28.023Z,24.35
2022-08-03T06:56:29.867Z,24.54
2022-08-03T07:00:10.994Z,24.79
2022-08-03T07:02:58.090Z,24.86
2022-08-03T07:06:00.601Z,25.13
2022-08-03T07:09:02.805Z,25.28
2022-08-03T07:12:06.565Z,25.31
2022-08-03T07:15:08.816Z,25.44
2022-08-03T07:18:29.325Z,25.57
2022-08-03T07:21:31.996Z,25.80
2022-08-03T07:24:33.917Z,25.80
2022-08-03T07:27:35.923Z,25.89
2022-08-03T07:30:37.916Z,26.18
2022-08-03T07:46:34.174Z,26.62
2022-08-03T07:49:40.036Z,26.93
2022-08-03T07:52:53.069Z,26.70
2022-08-03T07:55:54.888Z,27.00
2022-08-03T07:59:16.097Z,27.24
2022-08-03T08:02:18.305Z,27.42
2022-08-03T08:05:20.322Z,27.76
2022-08-03T08:08:21.933Z,28.19
2022-08-03T08:11:23.629Z,28.03
2022-08-03T08:14:25.624Z,28.58
2022-08-03T08:17:27.712Z,29.22
2022-08-03T08:20:34.905Z,28.68
2022-08-03T08:23:42.169Z,28.75
2022-08-03T08:26:46.057Z,28.55
2022-08-03T08:29:54.318Z,29.21
2022-08-03T08:32:57.890Z,30.13
2022-08-03T08:35:59.725Z,29.47
2022-08-03T08:39:02.307Z,29.70
2022-08-03T08:42:03.963Z,30.25
2022-08-03T08:45:07.180Z,31.45
2022-08-03T08:48:10.755Z,32.10
2022-08-03T08:51:13.776Z,32.54
2022-08-03T08:54:16.467Z,32.25
2022-08-03T08:57:40.823Z,33.20
2022-08-03T09:00:42.071Z,32.81
2022-08-03T09:03:43.880Z,32.72
2022-08-03T09:07:04.479Z,32.47
2022-08-03T09:10:13.287Z,35.34
2022-08-03T09:13:15.888Z,36.36
2022-08-03T09:16:20.606Z,35.56
2022-08-03T09:19:22.485Z,34.86
2022-08-03T09:22:25.873Z,34.14
2022-08-03T09:25:31.914Z,33.84
2022-08-03T09:29:01.376Z,35.13
2022-08-03T09:32:02.550Z,34.55
2022-08-03T09:35:04.748Z,33.58
2022-08-03T09:38:14.328Z,34.77
2022-08-03T09:41:19.726Z,36.03
2022-08-03T09:44:34.814Z,38.48
2022-08-03T09:47:36.843Z,39.13
2022-08-03T09:50:57.093Z,39.20
2022-08-03T09:54:26.045Z,38.34
2022-08-03T09:57:31.083Z,36.57
2022-08-03T10:00:32.778Z,38.98
2022-08-03T10:04:03.614Z,39.76
2022-08-03T10:07:04.619Z,38.32
2022-08-03T10:10:30.089Z,36.49
2022-08-03T10:13:29.151Z,35.71
2022-08-03T10:16:36.428Z,33.52
2022-08-03T10:19:38.382Z,34.15
2022-08-03T10:22:41.653Z,35.65
2022-08-03T10:25:46.442Z,37.92
2022-08-03T10:28:50.678Z,37.59
2022-08-03T10:31:58.424Z,35.72
2022-08-03T10:35:20.326Z,35.45
2022-08-03T10:38:34.520Z,34.82
2022-08-03T10:41:42.826Z,33.48
2022-08-03T10:44:44.573Z,33.31
2022-08-03T10:47:51.276Z,33.02
2022-08-03T10:50:53.750Z,32.58
2022-08-03T10:53:55.875Z,32.87
2022-08-03T10:57:16.273Z,33.24
2022-08-03T11:00:22.365Z,33.14
2022-08-03T11:03:24.320Z,33.52
2022-08-03T11:06:26.734Z,33.68
2022-08-03T11:09:43.777Z,33.97
2022-08-03T11:12:46.562Z,33.52
2022-08-03T11:15:53.037Z,32.87
2022-08-03T11:19:07.510Z,32.65
2022-08-03T11:22:09.903Z,32.85
2022-08-03T11:25:53.488Z,32.77
2022-08-03T11:28:42.037Z,33.06
2022-08-03T11:31:50.750Z,32.40
2022-08-03T11:35:15.302Z,31.55
2022-08-03T11:38:19.436Z,31.56
2022-08-03T11:41:43.276Z,32.01
2022-08-03T11:44:47.665Z,32.26
2022-08-03T11:47:52.722Z,31.59
2022-08-03T11:50:54.971Z,31.71
2022-08-03T11:54:04.820Z,30.79
2022-08-03T11:57:06.836Z,30.72
2022-08-03T12:00:32.100Z,30.68
2022-08-03T12:03:35.761Z,30.49
2022-08-03T12:06:55.676Z,30.54
2022-08-03T12:10:11.237Z,30.83
2022-08-03T12:14:28.931Z,30.72
2022-08-03T12:16:35.047Z,31.08
2022-08-03T12:19:43.916Z,31.23
2022-08-03T12:22:45.796Z,30.70
2022-08-03T12:25:49.502Z,30.57
2022-08-03T12:28:51.653Z,30.22
2022-08-03T12:31:53.398Z,30.28
2022-08-03T12:35:00.838Z,30.73
2022-08-03T12:38:03.296Z,32.10
2022-08-03T12:41:16.192Z,32.64
2022-08-03T12:44:17.934Z,33.11
2022-08-03T12:47:19.893Z,33.80
2022-08-03T12:50:35.667Z,33.79
2022-08-03T12:53:37.466Z,35.40
2022-08-03T12:56:58.479Z,35.94
2022-08-03T13:00:21.570Z,36.85
2022-08-03T13:03:42.341Z,37.91
2022-08-03T13:06:44.938Z,40.44
2022-08-03T13:09:53.212Z,42.81
2022-08-03T13:12:58.144Z,42.57
2022-08-03T13:15:59.893Z,46.93
2022-08-03T13:19:01.532Z,47.74
2022-08-03T13:22:22.609Z,49.01
2022-08-03T13:25:24.235Z,46.98
2022-08-03T13:28:26.105Z,50.33
2022-08-03T13:31:27.871Z,48.85
2022-08-03T13:34:30.347Z,49.00
2022-08-03T13:37:32.567Z,45.18
2022-08-03T13:40:41.543Z,42.42
2022-08-03T13:43:43.571Z,42.20
2022-08-03T13:46:46.530Z,40.76
2022-08-03T13:50:00.541Z,39.19
2022-08-03T13:53:04.317Z,43.19
2022-08-03T13:56:05.990Z,44.27
2022-08-03T13:59:07.914Z,40.37
2022-08-03T14:02:09.666Z,39.38
2022-08-03T14:05:11.453Z,39.04
2022-08-03T14:08:13.508Z,39.80
2022-08-03T14:11:16.245Z,40.76
2022-08-03T14:14:18.010Z,39.67
2022-08-03T14:17:20.121Z,37.17
2022-08-03T14:20:36.494Z,36.59
2022-08-03T14:23:40.700Z,35.94
2022-08-03T14:26:43.278Z,37.91
2022-08-03T14:29:45.091Z,40.07
2022-08-03T14:32:46.805Z,41.61
2022-08-03T14:35:49.550Z,42.16
2022-08-03T14:38:51.406Z,41.84
2022-08-03T14:41:53.789Z,43.05
2022-08-03T14:45:01.493Z,41.20
2022-08-03T14:50:32.074Z,38.19
2022-08-03T14:51:28.128Z,37.50
2022-08-03T14:54:33.696Z,37.60
2022-08-03T14:57:35.334Z,36.98
2022-08-03T15:00:37.181Z,36.64
2022-08-03T15:03:38.998Z,35.66
2022-08-03T15:06:40.704Z,35.04
2022-08-03T15:09:42.616Z,34.07
2022-08-03T15:12:44.369Z,34.58
2022-08-03T15:15:46.973Z,34.24
2022-08-03T15:18:48.670Z,34.15
2022-08-03T15:21:50.377Z,33.79
2022-08-03T15:24:53.248Z,34.14
2022-08-03T15:28:03.340Z,34.71
2022-08-03T15:31:06.840Z,34.08
2022-08-03T15:34:08.842Z,34.05
2022-08-03T15:37:16.229Z,33.85
2022-08-03T15:40:18.518Z,34.10
2022-08-03T15:43:21.319Z,33.73
2022-08-03T15:46:30.397Z,33.83
2022-08-03T15:49:32.117Z,33.68
2022-08-03T15:52:36.151Z,33.04
2022-08-03T15:55:37.854Z,33.11
2022-08-03T15:59:03.990Z,32.98
2022-08-03T16:02:01.704Z,32.99
2022-08-03T16:05:04.005Z,33.02
2022-08-03T16:08:08.012Z,32.89
2022-08-03T16:11:13.532Z,32.83
2022-08-03T16:14:32.424Z,32.27
2022-08-03T16:17:37.877Z,32.47
2022-08-03T16:20:39.826Z,32.48
2022-08-03T16:23:47.399Z,32.56
2022-08-03T16:26:49.466Z,32.32
2022-08-03T16:29:51.103Z,32.43
2022-08-03T16:32:53.006Z,32.24
2022-08-03T16:35:54.712Z,32.10
2022-08-03T16:38:56.382Z,32.17
2022-08-03T16:42:00.474Z,31.90
2022-08-03T16:45:04.784Z,31.70
2022-08-03T16:48:06.516Z,31.84
2022-08-03T16:51:08.357Z,31.48
2022-08-03T16:54:12.403Z,31.29
2022-08-03T16:57:15.894Z,31.42
2022-08-03T17:00:33.987Z,31.56
2022-08-03T17:03:42.503Z,31.19
2022-08-03T17:07:01.389Z,31.02
2022-08-03T17:10:05.043Z,30.70
2022-08-03T17:13:08.701Z,31.02
2022-08-03T17:16:15.528Z,30.82
2022-08-03T17:19:18.288Z,30.58
2022-08-03T17:22:23.176Z,31.08
2022-08-03T17:25:39.845Z,30.65
2022-08-03T17:28:56.441Z,30.45
2022-08-03T17:32:06.545Z,30.88
2022-08-03T17:35:11.281Z,30.84
2022-08-03T17:38:17.499Z,30.61
2022-08-03T17:41:24.126Z,30.54
2022-08-03T17:44:32.005Z,30.57
2022-08-03T17:47:43.763Z,30.48
2022-08-03T17:51:17.262Z,30.12
2022-08-03T17:54:30.587Z,29.78
2022-08-03T17:58:01.467Z,29.48
2022-08-03T18:02:00.846Z,29.55
2022-08-03T18:05:00.633Z,29.21
2022-08-03T18:08:06.915Z,28.70
2022-08-03T18:11:21.941Z,28.50
2022-08-03T18:14:57.520Z,28.81
2022-08-03T18:18:11.020Z,28.84
2022-08-03T18:21:16.911Z,28.77
2022-08-03T18:24:20.285Z,28.47
2022-08-03T18:27:45.977Z,27.90
2022-08-03T18:30:54.248Z,28.14
2022-08-03T18:34:17.323Z,27.99
2022-08-03T18:37:25.259Z,27.55
2022-08-03T18:40:28.492Z,27.44
2022-08-03T18:43:46.558Z,27.45
2022-08-03T18:46:49.471Z,27.41
2022-08-03T18:50:19.193Z,27.57
2022-08-03T18:57:03.494Z,27.68
2022-08-03T19:00:10.551Z,27.50
2022-08-03T19:03:23.633Z,27.45
2022-08-03T19:06:28.978Z,27.41
2022-08-03T19:09:47.621Z,27.03
2022-08-03T19:12:54.533Z,26.60
2022-08-03T19:15:59.478Z,26.47
2022-08-03T19:19:03.554Z,26.16
2022-08-03T19:22:10.662Z,26.48
2022-08-03T19:25:12.420Z,26.68
2022-08-03T19:28:17.291Z,26.65
2022-08-03T19:31:21.862Z,26.47
2022-08-03T19:34:33.715Z,26.39
2022-08-03T19:37:40.028Z,26.17
2022-08-03T19:44:19.953Z,25.53
2022-08-03T19:47:32.457Z,25.28
2022-08-03T19:50:36.323Z,24.81
2022-08-03T19:53:49.947Z,24.88
2022-08-03T19:56:55.674Z,24.67
2022-08-03T19:59:59.642Z,24.64
2022-08-03T20:03:21.921Z,24.49
2022-08-03T20:06:24.788Z,24.22
2022-08-03T20:09:30.427Z,24.75
2022-08-03T20:12:39.112Z,24.57
2022-08-03T20:15:42.034Z,24.32
2022-08-03T20:18:44.581Z,23.94
2022-08-03T20:21:51.797Z,24.59
2022-08-03T20:24:56.703Z,24.70
2022-08-03T20:28:13.962Z,24.66
2022-08-03T20:31:17.439Z,24.62
2022-08-03T20:34:19.393Z,24.21
2022-08-03T20:37:21.141Z,24.11
2022-08-03T20:40:23.740Z,24.48
2022-08-03T20:43:29.619Z,23.75
2022-08-03T20:46:46.510Z,23.51
2022-08-03T20:49:54.353Z,24.21
2022-08-03T20:52:56.140Z,24.18
2022-08-03T20:56:01.972Z,24.03
2022-08-03T20:59:07.505Z,23.90
2022-08-03T21:02:19.707Z,24.18
2022-08-03T21:05:51.345Z,24.38
2022-08-03T21:09:00.136Z,24.48
2022-08-03T21:12:08.235Z,24.27
2022-08-03T21:13:02.694Z,26.15
2022-08-03T21:13:08.187Z,27.70
2022-08-03T21:15:15.869Z,24.13
2022-08-03T21:18:49.284Z,24.29
2022-08-03T21:21:52.003Z,24.11
2022-08-03T21:24:57.344Z,24.03
2022-08-03T21:28:00.158Z,23.96
2022-08-03T21:31:02.249Z,23.85
2022-08-03T21:34:05.878Z,24.00
2022-08-03T21:37:07.741Z,23.91
2022-08-03T21:40:12.423Z,23.95
2022-08-03T21:43:14.183Z,23.45
2022-08-03T21:46:19.223Z,23.27
2022-08-03T21:50:04.121Z,23.61
2022-08-03T21:52:46.767Z,23.82
2022-08-03T21:56:01.377Z,23.68
2022-08-03T21:59:09.588Z,23.61
2022-08-03T22:02:24.399Z,22.94
2022-08-03T22:05:43.060Z,22.77
2022-08-03T22:08:47.742Z,22.66
2022-08-03T22:11:54.115Z,22.58
2022-08-03T22:15:00.884Z,22.52
2022-08-03T22:18:04.308Z,22.61
2022-08-03T22:21:07.386Z,22.37
2022-08-03T22:24:09.287Z,22.08
2022-08-03T22:27:31.962Z,21.97
2022-08-03T22:30:34.740Z,21.87
2022-08-03T22:33:37.185Z,21.86
2022-08-03T22:36:40.607Z,21.57
2022-08-03T22:39:44.496Z,21.86
2022-08-03T22:42:52.037Z,21.83
2022-08-03T22:46:10.405Z,21.94
2022-08-03T22:49:14.682Z,21.87
2022-08-03T22:52:17.129Z,22.02
2022-08-03T22:55:24.796Z,22.27
2022-08-03T22:58:26.821Z,22.21
2022-08-03T23:01:29.031Z,22.08
2022-08-03T23:04:33.182Z,22.01
2022-08-03T23:07:39.621Z,21.74
2022-08-03T23:10:46.807Z,21.73
2022-08-03T23:13:53.305Z,21.91
2022-08-03T23:16:56.457Z,21.80
2022-08-03T23:20:17.161Z,21.63
2022-08-03T23:23:20.722Z,21.69
2022-08-03T23:26:22.876Z,21.48
2022-08-03T23:29:27.731Z,21.14
2022-08-03T23:32:31.076Z,20.97
2022-08-03T23:36:27.889Z,20.96
2022-08-03T23:39:14.891Z,21.01
2022-08-03T23:42:19.210Z,21.10
2022-08-03T23:45:21.580Z,21.11
2022-08-03T23:48:23.248Z,20.93
2022-08-03T23:51:36.676Z,20.93
2022-08-03T23:54:44.024Z,20.87
2022-08-03T23:58:03.598Z,20.88
